sensor_id;sensor_type;location;lat;lon;timestamp;pressure;altitude;pressure_sealevel;temperature;humidity
73558;BME280;61829;53.286;10.434;2023-09-08T00:00:39;101870.59;;;19.77;61.00
73558;BME280;61829;53.286;10.434;2023-09-08T00:03:25;101878.59;;;19.71;61.38
73558;BME280;61829;53.286;10.434;2023-09-08T00:05:51;101877.38;;;19.67;61.97
73558;BME280;61829;53.286;10.434;2023-09-08T00:08:17;101877.38;;;19.61;62.08
73558;BME280;61829;53.286;10.434;2023-09-08T00:10:43;101874.69;;;19.54;62.92
73558;BME280;61829;53.286;10.434;2023-09-08T00:13:09;101873.88;;;19.47;63.17
73558;BME280;61829;53.286;10.434;2023-09-08T00:15:36;101872.25;;;19.39;63.55
73558;BME280;61829;53.286;10.434;2023-09-08T00:18:02;101870.59;;;19.32;64.11
73558;BME280;61829;53.286;10.434;2023-09-08T00:20:29;101872.50;;;19.24;64.38
73558;BME280;61829;53.286;10.434;2023-09-08T00:22:55;101872.75;;;19.16;65.11
73558;BME280;61829;53.286;10.434;2023-09-08T00:25:21;101876.78;;;19.07;65.31
73558;BME280;61829;53.286;10.434;2023-09-08T00:27:47;101868.81;;;18.99;65.81
73558;BME280;61829;53.286;10.434;2023-09-08T00:30:13;101871.78;;;18.91;65.74
73558;BME280;61829;53.286;10.434;2023-09-08T00:32:39;101867.84;;;18.80;66.54
73558;BME280;61829;53.286;10.434;2023-09-08T00:35:06;101869.69;;;18.73;66.98
73558;BME280;61829;53.286;10.434;2023-09-08T00:37:33;101874.56;;;18.64;67.47
73558;BME280;61829;53.286;10.434;2023-09-08T00:39:59;101870.78;;;18.58;67.82
73558;BME280;61829;53.286;10.434;2023-09-08T00:42:25;101866.59;;;18.49;67.98
73558;BME280;61829;53.286;10.434;2023-09-08T00:44:51;101869.56;;;18.41;68.97
73558;BME280;61829;53.286;10.434;2023-09-08T00:47:17;101865.56;;;18.30;69.20
73558;BME280;61829;53.286;10.434;2023-09-08T00:49:44;101861.56;;;18.20;69.42
73558;BME280;61829;53.286;10.434;2023-09-08T00:52:10;101869.78;;;18.13;69.54
73558;BME280;61829;53.286;10.434;2023-09-08T00:54:36;101866.81;;;18.08;69.78
73558;BME280;61829;53.286;10.434;2023-09-08T00:57:02;101866.84;;;18.01;70.25
73558;BME280;61829;53.286;10.434;2023-09-08T00:59:32;101864.72;;;17.97;70.54
73558;BME280;61829;53.286;10.434;2023-09-08T01:02:16;101866.38;;;17.91;70.53
73558;BME280;61829;53.286;10.434;2023-09-08T01:04:44;101863.66;;;17.84;70.67
73558;BME280;61829;53.286;10.434;2023-09-08T01:07:11;101859.66;;;17.80;71.26
73558;BME280;61829;53.286;10.434;2023-09-08T01:09:37;101856.09;;;17.80;70.71
73558;BME280;61829;53.286;10.434;2023-09-08T01:12:07;101857.31;;;17.77;70.79
73558;BME280;61829;53.286;10.434;2023-09-08T01:14:33;101855.00;;;17.74;71.35
73558;BME280;61829;53.286;10.434;2023-09-08T01:16:59;101853.34;;;17.66;71.60
73558;BME280;61829;53.286;10.434;2023-09-08T01:19:25;101856.66;;;17.62;71.64
73558;BME280;61829;53.286;10.434;2023-09-08T01:27:35;101839.66;;;17.53;72.39
73558;BME280;61829;53.286;10.434;2023-09-08T01:30:05;101845.72;;;17.48;72.92
73558;BME280;61829;53.286;10.434;2023-09-08T01:32:32;101841.75;;;17.44;73.42
73558;BME280;61829;53.286;10.434;2023-09-08T01:34:59;101841.53;;;17.39;73.35
73558;BME280;61829;53.286;10.434;2023-09-08T01:37:26;101845.66;;;17.28;73.88
73558;BME280;61829;53.286;10.434;2023-09-08T01:39:52;101845.00;;;17.20;74.39
73558;BME280;61829;53.286;10.434;2023-09-08T01:42:18;101841.44;;;17.13;74.75
73558;BME280;61829;53.286;10.434;2023-09-08T01:44:45;101850.00;;;17.10;74.50
73558;BME280;61829;53.286;10.434;2023-09-08T01:47:10;101845.16;;;17.05;74.88
73558;BME280;61829;53.286;10.434;2023-09-08T01:49:37;101845.78;;;17.00;74.92
73558;BME280;61829;53.286;10.434;2023-09-08T01:52:04;101847.22;;;16.96;75.15
73558;BME280;61829;53.286;10.434;2023-09-08T01:54:30;101841.94;;;16.88;75.56
73558;BME280;61829;53.286;10.434;2023-09-08T01:56:56;101841.06;;;16.81;75.95
73558;BME280;61829;53.286;10.434;2023-09-08T01:59:53;101836.41;;;16.75;75.76
73558;BME280;61829;53.286;10.434;2023-09-08T02:02:19;101838.25;;;16.68;76.55
73558;BME280;61829;53.286;10.434;2023-09-08T02:04:46;101834.06;;;16.65;76.60
73558;BME280;61829;53.286;10.434;2023-09-08T02:07:12;101831.25;;;16.58;76.25
73558;BME280;61829;53.286;10.434;2023-09-08T02:09:39;101828.75;;;16.57;76.41
73558;BME280;61829;53.286;10.434;2023-09-08T02:12:05;101821.59;;;16.49;77.45
73558;BME280;61829;53.286;10.434;2023-09-08T02:14:31;101815.88;;;16.37;78.18
73558;BME280;61829;53.286;10.434;2023-09-08T02:16:57;101810.78;;;16.28;78.62
73558;BME280;61829;53.286;10.434;2023-09-08T02:19:24;101802.81;;;16.26;78.14
73558;BME280;61829;53.286;10.434;2023-09-08T02:21:49;101798.88;;;16.29;77.40
73558;BME280;61829;53.286;10.434;2023-09-08T02:24:16;101801.00;;;16.33;77.93
73558;BME280;61829;53.286;10.434;2023-09-08T02:26:42;101797.22;;;16.34;77.73
73558;BME280;61829;53.286;10.434;2023-09-08T02:29:08;101789.72;;;16.36;76.58
73558;BME280;61829;53.286;10.434;2023-09-08T02:31:34;101789.50;;;16.38;76.70
73558;BME280;61829;53.286;10.434;2023-09-08T02:34:00;101793.06;;;16.38;76.11
73558;BME280;61829;53.286;10.434;2023-09-08T02:36:26;101788.47;;;16.39;76.65
73558;BME280;61829;53.286;10.434;2023-09-08T02:38:53;101791.81;;;16.41;76.33
73558;BME280;61829;53.286;10.434;2023-09-08T02:41:20;101785.34;;;16.42;76.58
73558;BME280;61829;53.286;10.434;2023-09-08T02:43:47;101778.69;;;16.45;76.74
73558;BME280;61829;53.286;10.434;2023-09-08T02:46:13;101780.13;;;16.47;77.15
73558;BME280;61829;53.286;10.434;2023-09-08T02:48:39;101781.00;;;16.48;77.17
73558;BME280;61829;53.286;10.434;2023-09-08T02:51:08;101782.66;;;16.49;76.59
73558;BME280;61829;53.286;10.434;2023-09-08T02:53:34;101779.75;;;16.50;77.66
73558;BME280;61829;53.286;10.434;2023-09-08T02:56:02;101791.66;;;16.49;77.89
73558;BME280;61829;53.286;10.434;2023-09-08T02:58:29;101789.34;;;16.46;77.58
73558;BME280;61829;53.286;10.434;2023-09-08T03:00:56;101794.13;;;16.44;77.20
73558;BME280;61829;53.286;10.434;2023-09-08T03:03:22;101798.09;;;16.42;77.36
73558;BME280;61829;53.286;10.434;2023-09-08T03:05:53;101800.38;;;16.38;77.92
73558;BME280;61829;53.286;10.434;2023-09-08T03:08:30;101799.69;;;16.29;78.52
73558;BME280;61829;53.286;10.434;2023-09-08T03:10:57;101804.63;;;16.19;78.84
73558;BME280;61829;53.286;10.434;2023-09-08T03:13:23;101803.38;;;16.15;78.61
73558;BME280;61829;53.286;10.434;2023-09-08T03:15:50;101805.00;;;16.09;78.73
73558;BME280;61829;53.286;10.434;2023-09-08T03:18:16;101801.19;;;16.04;80.30
73558;BME280;61829;53.286;10.434;2023-09-08T03:20:42;101801.59;;;16.01;80.36
73558;BME280;61829;53.286;10.434;2023-09-08T03:23:09;101807.19;;;15.99;81.06
73558;BME280;61829;53.286;10.434;2023-09-08T03:25:35;101806.59;;;15.97;81.42
73558;BME280;61829;53.286;10.434;2023-09-08T03:28:01;101806.09;;;15.93;81.61
73558;BME280;61829;53.286;10.434;2023-09-08T03:30:27;101801.03;;;15.84;81.55
73558;BME280;61829;53.286;10.434;2023-09-08T03:32:53;101789.44;;;15.75;82.14
73558;BME280;61829;53.286;10.434;2023-09-08T03:35:19;101803.81;;;15.69;82.40
73558;BME280;61829;53.286;10.434;2023-09-08T03:37:45;101792.47;;;15.65;82.46
73558;BME280;61829;53.286;10.434;2023-09-08T03:40:11;101797.44;;;15.62;82.36
73558;BME280;61829;53.286;10.434;2023-09-08T03:42:38;101796.59;;;15.61;81.25
73558;BME280;61829;53.286;10.434;2023-09-08T03:45:04;101785.09;;;15.59;81.30
73558;BME280;61829;53.286;10.434;2023-09-08T03:47:30;101793.22;;;15.59;81.45
73558;BME280;61829;53.286;10.434;2023-09-08T03:49:56;101791.75;;;15.57;81.56
73558;BME280;61829;53.286;10.434;2023-09-08T03:52:22;101789.41;;;15.54;82.28
73558;BME280;61829;53.286;10.434;2023-09-08T03:54:48;101790.00;;;15.49;82.34
73558;BME280;61829;53.286;10.434;2023-09-08T03:57:15;101799.19;;;15.48;82.63
73558;BME280;61829;53.286;10.434;2023-09-08T03:59:41;101795.19;;;15.44;82.83
73558;BME280;61829;53.286;10.434;2023-09-08T04:02:07;101792.84;;;15.41;82.96
73558;BME280;61829;53.286;10.434;2023-09-08T04:04:33;101795.56;;;15.41;82.13
73558;BME280;61829;53.286;10.434;2023-09-08T04:06:59;101788.44;;;15.40;83.04
73558;BME280;61829;53.286;10.434;2023-09-08T04:09:25;101782.56;;;15.36;83.83
73558;BME280;61829;53.286;10.434;2023-09-08T04:11:51;101783.59;;;15.35;83.35
73558;BME280;61829;53.286;10.434;2023-09-08T04:14:17;101794.66;;;15.34;83.71
73558;BME280;61829;53.286;10.434;2023-09-08T04:16:43;101787.94;;;15.30;84.28
73558;BME280;61829;53.286;10.434;2023-09-08T04:19:09;101787.88;;;15.23;84.50
73558;BME280;61829;53.286;10.434;2023-09-08T04:21:35;101786.56;;;15.19;84.50
73558;BME280;61829;53.286;10.434;2023-09-08T04:24:01;101780.28;;;15.18;84.94
73558;BME280;61829;53.286;10.434;2023-09-08T04:26:27;101782.34;;;15.16;85.11
73558;BME280;61829;53.286;10.434;2023-09-08T04:28:53;101781.69;;;15.14;84.74
73558;BME280;61829;53.286;10.434;2023-09-08T04:31:20;101780.47;;;15.17;84.67
73558;BME280;61829;53.286;10.434;2023-09-08T04:33:47;101781.34;;;15.17;84.78
73558;BME280;61829;53.286;10.434;2023-09-08T04:36:13;101781.34;;;15.17;85.00
73558;BME280;61829;53.286;10.434;2023-09-08T04:38:40;101783.19;;;15.17;85.10
73558;BME280;61829;53.286;10.434;2023-09-08T04:41:07;101777.56;;;15.18;84.31
73558;BME280;61829;53.286;10.434;2023-09-08T04:43:33;101780.94;;;15.20;84.53
73558;BME280;61829;53.286;10.434;2023-09-08T04:45:59;101780.75;;;15.22;84.34
73558;BME280;61829;53.286;10.434;2023-09-08T04:48:25;101776.16;;;15.22;84.23
73558;BME280;61829;53.286;10.434;2023-09-08T04:50:51;101778.22;;;15.20;84.73
73558;BME280;61829;53.286;10.434;2023-09-08T04:53:17;101780.28;;;15.18;85.26
73558;BME280;61829;53.286;10.434;2023-09-08T04:55:43;101778.78;;;15.16;85.09
73558;BME280;61829;53.286;10.434;2023-09-08T04:58:09;101781.50;;;15.16;85.16
73558;BME280;61829;53.286;10.434;2023-09-08T05:00:37;101777.41;;;15.05;85.50
73558;BME280;61829;53.286;10.434;2023-09-08T05:03:04;101777.53;;;14.97;85.90
73558;BME280;61829;53.286;10.434;2023-09-08T05:05:30;101781.66;;;14.93;85.18
73558;BME280;61829;53.286;10.434;2023-09-08T05:07:56;101781.66;;;14.93;85.11
73558;BME280;61829;53.286;10.434;2023-09-08T05:10:23;101777.91;;;14.94;84.81
73558;BME280;61829;53.286;10.434;2023-09-08T05:12:49;101795.50;;;14.98;85.17
73558;BME280;61829;53.286;10.434;2023-09-08T05:15:16;101791.19;;;15.03;84.90
73558;BME280;61829;53.286;10.434;2023-09-08T05:17:43;101781.84;;;15.06;85.14
73558;BME280;61829;53.286;10.434;2023-09-08T05:20:09;101783.50;;;15.07;85.19
73558;BME280;61829;53.286;10.434;2023-09-08T05:22:35;101783.28;;;15.09;85.25
73558;BME280;61829;53.286;10.434;2023-09-08T05:25:02;101773.09;;;15.11;84.94
73558;BME280;61829;53.286;10.434;2023-09-08T05:27:28;101773.09;;;15.11;85.45
73558;BME280;61829;53.286;10.434;2023-09-08T05:29:54;101774.97;;;15.10;85.84
73558;BME280;61829;53.286;10.434;2023-09-08T05:32:20;101771.03;;;15.13;86.31
73558;BME280;61829;53.286;10.434;2023-09-08T05:34:46;101767.09;;;15.37;85.38
73558;BME280;61829;53.286;10.434;2023-09-08T05:37:12;101766.38;;;15.92;83.81
73558;BME280;61829;53.286;10.434;2023-09-08T05:39:38;101772.22;;;16.52;81.89
73558;BME280;61829;53.286;10.434;2023-09-08T05:42:04;101767.69;;;17.14;79.50
73558;BME280;61829;53.286;10.434;2023-09-08T05:44:31;101766.94;;;17.80;76.55
73558;BME280;61829;53.286;10.434;2023-09-08T05:46:57;101764.41;;;18.32;73.09
73558;BME280;61829;53.286;10.434;2023-09-08T05:49:23;101765.34;;;18.77;71.27
73558;BME280;61829;53.286;10.434;2023-09-08T05:51:50;101752.88;;;19.26;69.65
73558;BME280;61829;53.286;10.434;2023-09-08T05:54:16;101752.16;;;19.69;67.62
73558;BME280;61829;53.286;10.434;2023-09-08T05:56:42;101755.34;;;20.16;65.96
73558;BME280;61829;53.286;10.434;2023-09-08T05:59:08;101749.34;;;20.63;64.45
73558;BME280;61829;53.286;10.434;2023-09-08T06:01:34;101751.50;;;21.10;63.24
73558;BME280;61829;53.286;10.434;2023-09-08T06:04:02;101747.25;;;21.56;60.45
73558;BME280;61829;53.286;10.434;2023-09-08T06:06:28;101749.31;;;21.95;58.89
73558;BME280;61829;53.286;10.434;2023-09-08T06:08:54;101751.38;;;22.24;58.43
73558;BME280;61829;53.286;10.434;2023-09-08T06:11:21;101749.28;;;22.54;57.14
73558;BME280;61829;53.286;10.434;2023-09-08T06:13:47;101757.09;;;22.86;56.43
73558;BME280;61829;53.286;10.434;2023-09-08T06:16:13;101751.94;;;23.18;55.72
73558;BME280;61829;53.286;10.434;2023-09-08T06:18:39;101750.00;;;23.47;54.29
73558;BME280;61829;53.286;10.434;2023-09-08T06:21:09;101755.47;;;23.76;53.90
73558;BME280;61829;53.286;10.434;2023-09-08T06:23:35;101747.41;;;24.08;53.17
73558;BME280;61829;53.286;10.434;2023-09-08T06:26:02;101750.09;;;24.42;51.95
73558;BME280;61829;53.286;10.434;2023-09-08T06:28:27;101754.75;;;24.58;50.91
73558;BME280;61829;53.286;10.434;2023-09-08T06:30:54;101753.44;;;24.88;50.49
73558;BME280;61829;53.286;10.434;2023-09-08T06:33:23;101751.59;;;25.16;49.49
73558;BME280;61829;53.286;10.434;2023-09-08T06:36:00;101747.25;;;25.25;49.34
73558;BME280;61829;53.286;10.434;2023-09-08T06:38:30;101747.94;;;25.37;49.09
73558;BME280;61829;53.286;10.434;2023-09-08T06:40:57;101759.63;;;25.49;48.75
73558;BME280;61829;53.286;10.434;2023-09-08T06:43:23;101752.72;;;25.79;48.72
73558;BME280;61829;53.286;10.434;2023-09-08T06:45:49;101761.72;;;25.96;47.67
73558;BME280;61829;53.286;10.434;2023-09-08T06:48:16;101747.41;;;26.05;47.43
73558;BME280;61829;53.286;10.434;2023-09-08T06:50:42;101750.84;;;26.27;47.33
73558;BME280;61829;53.286;10.434;2023-09-08T06:53:08;101751.53;;;26.50;46.19
73558;BME280;61829;53.286;10.434;2023-09-08T06:55:35;101759.06;;;26.64;46.28
73558;BME280;61829;53.286;10.434;2023-09-08T06:58:01;101750.53;;;26.76;45.54
73558;BME280;61829;53.286;10.434;2023-09-08T07:00:27;101750.81;;;26.70;45.64
73558;BME280;61829;53.286;10.434;2023-09-08T07:02:54;101754.28;;;26.50;45.82
73558;BME280;61829;53.286;10.434;2023-09-08T07:05:21;101756.53;;;26.53;45.98
73558;BME280;61829;53.286;10.434;2023-09-08T07:07:47;101743.88;;;26.72;45.78
73558;BME280;61829;53.286;10.434;2023-09-08T07:10:13;101743.41;;;27.06;45.39
73558;BME280;61829;53.286;10.434;2023-09-08T07:12:39;101745.44;;;27.21;44.58
73558;BME280;61829;53.286;10.434;2023-09-08T07:15:05;101744.59;;;27.30;44.12
73558;BME280;61829;53.286;10.434;2023-09-08T07:17:31;101743.50;;;27.37;44.69
73558;BME280;61829;53.286;10.434;2023-09-08T07:19:58;101756.25;;;27.58;44.24
73558;BME280;61829;53.286;10.434;2023-09-08T07:22:24;101755.41;;;27.73;44.65
73558;BME280;61829;53.286;10.434;2023-09-08T07:24:50;101756.25;;;27.79;43.25
73558;BME280;61829;53.286;10.434;2023-09-08T07:27:16;101757.38;;;27.88;43.24
73558;BME280;61829;53.286;10.434;2023-09-08T07:29:42;101749.31;;;28.07;43.17
73558;BME280;61829;53.286;10.434;2023-09-08T07:32:08;101751.25;;;28.11;42.36
73558;BME280;61829;53.286;10.434;2023-09-08T07:34:34;101751.19;;;28.32;43.13
73558;BME280;61829;53.286;10.434;2023-09-08T07:37:01;101760.00;;;28.54;42.41
73558;BME280;61829;53.286;10.434;2023-09-08T07:39:27;101759.81;;;28.90;42.75
73558;BME280;61829;53.286;10.434;2023-09-08T07:41:53;101766.16;;;29.06;41.01
73558;BME280;61829;53.286;10.434;2023-09-08T07:44:22;101761.53;;;29.36;40.89
73558;BME280;61829;53.286;10.434;2023-09-08T07:46:48;101773.31;;;29.57;40.35
73558;BME280;61829;53.286;10.434;2023-09-08T07:49:18;101771.19;;;29.77;40.52
73558;BME280;61829;53.286;10.434;2023-09-08T07:51:47;101769.50;;;30.11;39.66
73558;BME280;61829;53.286;10.434;2023-09-08T07:54:13;101766.50;;;30.31;38.95
73558;BME280;61829;53.286;10.434;2023-09-08T07:56:39;101772.50;;;30.43;38.53
73558;BME280;61829;53.286;10.434;2023-09-08T07:59:08;101762.44;;;30.48;38.36
73558;BME280;61829;53.286;10.434;2023-09-08T08:01:34;101758.78;;;30.28;36.86
73558;BME280;61829;53.286;10.434;2023-09-08T08:04:00;101755.81;;;30.14;40.14
73558;BME280;61829;53.286;10.434;2023-09-08T08:06:29;101755.59;;;30.11;38.65
73558;BME280;61829;53.286;10.434;2023-09-08T08:08:56;101756.19;;;30.08;40.48
73558;BME280;61829;53.286;10.434;2023-09-08T08:11:23;101754.09;;;29.94;40.48
73558;BME280;61829;53.286;10.434;2023-09-08T08:13:49;101740.34;;;29.79;39.47
73558;BME280;61829;53.286;10.434;2023-09-08T08:16:15;101743.59;;;29.86;38.82
73558;BME280;61829;53.286;10.434;2023-09-08T08:18:42;101744.47;;;30.11;40.10
73558;BME280;61829;53.286;10.434;2023-09-08T08:21:08;101736.75;;;30.32;38.34
73558;BME280;61829;53.286;10.434;2023-09-08T08:23:35;101742.03;;;30.33;38.15
73558;BME280;61829;53.286;10.434;2023-09-08T08:26:01;101740.56;;;30.12;38.43
73558;BME280;61829;53.286;10.434;2023-09-08T08:28:28;101737.13;;;30.20;39.54
73558;BME280;61829;53.286;10.434;2023-09-08T08:30:54;101739.31;;;30.28;39.44
73558;BME280;61829;53.286;10.434;2023-09-08T08:33:21;101736.09;;;30.40;39.85
73558;BME280;61829;53.286;10.434;2023-09-08T08:35:50;101733.47;;;30.73;38.78
73558;BME280;61829;53.286;10.434;2023-09-08T08:38:18;101737.56;;;30.80;39.61
73558;BME280;61829;53.286;10.434;2023-09-08T08:40:44;101723.78;;;31.08;38.49
73558;BME280;61829;53.286;10.434;2023-09-08T08:43:11;101728.06;;;31.19;37.71
73558;BME280;61829;53.286;10.434;2023-09-08T08:45:38;101730.88;;;31.00;37.98
73558;BME280;61829;53.286;10.434;2023-09-08T08:48:08;101724.88;;;30.69;38.49
73558;BME280;61829;53.286;10.434;2023-09-08T08:50:37;101723.22;;;30.49;39.65
73558;BME280;61829;53.286;10.434;2023-09-08T08:53:05;101721.41;;;30.58;39.13
73558;BME280;61829;53.286;10.434;2023-09-08T08:55:34;101723.50;;;30.48;37.99
73558;BME280;61829;53.286;10.434;2023-09-08T08:58:04;101717.72;;;30.63;38.61
73558;BME280;61829;53.286;10.434;2023-09-08T09:00:34;101728.00;;;30.86;37.18
73558;BME280;61829;53.286;10.434;2023-09-08T09:03:04;101723.34;;;30.82;36.45
73558;BME280;61829;53.286;10.434;2023-09-08T09:05:32;101728.16;;;30.95;37.58
73558;BME280;61829;53.286;10.434;2023-09-08T09:08:01;101724.31;;;31.10;36.87
73558;BME280;61829;53.286;10.434;2023-09-08T09:10:31;101725.50;;;31.42;37.51
73558;BME280;61829;53.286;10.434;2023-09-08T09:12:58;101724.00;;;31.49;36.52
73558;BME280;61829;53.286;10.434;2023-09-08T09:15:31;101734.78;;;31.37;36.42
73558;BME280;61829;53.286;10.434;2023-09-08T09:18:07;101728.91;;;31.39;36.58
73558;BME280;61829;53.286;10.434;2023-09-08T09:20:34;101730.56;;;31.40;36.45
73558;BME280;61829;53.286;10.434;2023-09-08T09:23:02;101722.81;;;31.69;36.26
73558;BME280;61829;53.286;10.434;2023-09-08T09:26:01;101721.13;;;32.01;35.80
73558;BME280;61829;53.286;10.434;2023-09-08T09:28:29;101720.72;;;32.08;36.42
73558;BME280;61829;53.286;10.434;2023-09-08T09:30:55;101719.16;;;32.02;34.58
73558;BME280;61829;53.286;10.434;2023-09-08T09:33:22;101720.25;;;31.87;35.75
73558;BME280;61829;53.286;10.434;2023-09-08T09:35:53;101722.38;;;31.62;36.29
73558;BME280;61829;53.286;10.434;2023-09-08T09:38:20;101716.91;;;31.57;36.07
73558;BME280;61829;53.286;10.434;2023-09-08T09:40:47;101718.78;;;31.75;35.95
73558;BME280;61829;53.286;10.434;2023-09-08T09:43:15;101714.16;;;31.71;35.98
73558;BME280;61829;53.286;10.434;2023-09-08T09:45:43;101716.19;;;31.65;36.22
73558;BME280;61829;53.286;10.434;2023-09-08T09:48:10;101708.13;;;31.64;35.87
73558;BME280;61829;53.286;10.434;2023-09-08T09:50:38;101712.78;;;31.68;35.04
73558;BME280;61829;53.286;10.434;2023-09-08T09:53:10;101709.31;;;31.76;35.73
73558;BME280;61829;53.286;10.434;2023-09-08T09:55:38;101704.28;;;31.92;35.75
73558;BME280;61829;53.286;10.434;2023-09-08T09:58:08;101700.69;;;32.06;35.25
73558;BME280;61829;53.286;10.434;2023-09-08T10:00:36;101702.44;;;32.02;35.62
73558;BME280;61829;53.286;10.434;2023-09-08T10:03:06;101708.22;;;32.05;34.98
73558;BME280;61829;53.286;10.434;2023-09-08T10:05:33;101711.41;;;32.12;34.60
73558;BME280;61829;53.286;10.434;2023-09-08T10:08:00;101716.59;;;32.19;35.06
73558;BME280;61829;53.286;10.434;2023-09-08T10:10:27;101704.91;;;32.45;35.91
73558;BME280;61829;53.286;10.434;2023-09-08T10:12:59;101715.56;;;32.56;34.09
73558;BME280;61829;53.286;10.434;2023-09-08T10:15:28;101718.00;;;32.72;33.85
73558;BME280;61829;53.286;10.434;2023-09-08T10:17:56;101710.34;;;32.77;33.17
73558;BME280;61829;53.286;10.434;2023-09-08T10:20:27;101711.22;;;33.00;33.55
73558;BME280;61829;53.286;10.434;2023-09-08T10:23:12;101706.28;;;33.20;33.77
73558;BME280;61829;53.286;10.434;2023-09-08T10:25:46;101707.34;;;33.24;34.04
73558;BME280;61829;53.286;10.434;2023-09-08T10:28:21;101700.19;;;33.40;33.93
73558;BME280;61829;53.286;10.434;2023-09-08T10:30:48;101702.56;;;33.47;32.97
73558;BME280;61829;53.286;10.434;2023-09-08T10:33:16;101695.97;;;33.51;33.01
73558;BME280;61829;53.286;10.434;2023-09-08T10:35:43;101697.91;;;33.42;32.82
73558;BME280;61829;53.286;10.434;2023-09-08T10:38:36;101692.19;;;33.47;32.07
73558;BME280;61829;53.286;10.434;2023-09-08T10:44:03;101691.09;;;33.35;32.14
73558;BME280;61829;53.286;10.434;2023-09-08T10:46:33;101678.63;;;33.32;32.56
73558;BME280;61829;53.286;10.434;2023-09-08T10:49:06;101679.22;;;33.29;32.61
73558;BME280;61829;53.286;10.434;2023-09-08T10:51:35;101667.44;;;33.32;31.79
73558;BME280;61829;53.286;10.434;2023-09-08T10:54:02;101679.31;;;33.38;31.52
73558;BME280;61829;53.286;10.434;2023-09-08T10:56:55;101678.97;;;33.39;32.27
73558;BME280;61829;53.286;10.434;2023-09-08T10:59:28;101675.97;;;33.27;33.89
73558;BME280;61829;53.286;10.434;2023-09-08T11:01:55;101663.38;;;33.38;31.82
73558;BME280;61829;53.286;10.434;2023-09-08T11:04:23;101668.56;;;33.31;31.45
73558;BME280;61829;53.286;10.434;2023-09-08T11:06:51;101671.88;;;33.33;30.64
73558;BME280;61829;53.286;10.434;2023-09-08T11:09:18;101666.66;;;33.18;31.49
73558;BME280;61829;53.286;10.434;2023-09-08T11:11:44;101668.59;;;33.08;30.77
73558;BME280;61829;53.286;10.434;2023-09-08T11:14:11;101664.97;;;33.08;32.11
73558;BME280;61829;53.286;10.434;2023-09-08T11:16:37;101668.47;;;33.14;30.59
73558;BME280;61829;53.286;10.434;2023-09-08T11:19:04;101661.19;;;33.04;31.60
73558;BME280;61829;53.286;10.434;2023-09-08T11:21:30;101664.66;;;33.09;31.44
73558;BME280;61829;53.286;10.434;2023-09-08T11:24:02;101662.63;;;33.01;30.64
73558;BME280;61829;53.286;10.434;2023-09-08T11:26:33;101656.81;;;32.98;31.28
73558;BME280;61829;53.286;10.434;2023-09-08T11:29:00;101657.88;;;32.88;30.67
73558;BME280;61829;53.286;10.434;2023-09-08T11:31:27;101655.72;;;32.85;31.17
73558;BME280;61829;53.286;10.434;2023-09-08T11:33:55;101652.59;;;32.86;32.45
73558;BME280;61829;53.286;10.434;2023-09-08T11:36:21;101650.00;;;33.04;32.66
73558;BME280;61829;53.286;10.434;2023-09-08T11:38:48;101648.97;;;33.22;31.62
73558;BME280;61829;53.286;10.434;2023-09-08T11:41:15;101643.88;;;33.24;31.01
73558;BME280;61829;53.286;10.434;2023-09-08T11:43:41;101642.84;;;32.98;30.64
73558;BME280;61829;53.286;10.434;2023-09-08T11:46:07;101645.38;;;32.85;31.51
73558;BME280;61829;53.286;10.434;2023-09-08T11:48:33;101646.69;;;33.02;31.99
73558;BME280;61829;53.286;10.434;2023-09-08T11:51:00;101643.94;;;33.33;31.18
73558;BME280;61829;53.286;10.434;2023-09-08T11:53:27;101641.53;;;33.49;30.54
73558;BME280;61829;53.286;10.434;2023-09-08T11:55:53;101638.50;;;33.59;30.43
73558;BME280;61829;53.286;10.434;2023-09-08T11:58:19;101635.84;;;33.54;30.38
73558;BME280;61829;53.286;10.434;2023-09-08T12:00:46;101635.44;;;33.69;30.72
73558;BME280;61829;53.286;10.434;2023-09-08T12:03:16;101626.56;;;33.67;29.73
73558;BME280;61829;53.286;10.434;2023-09-08T12:05:44;101625.22;;;33.65;29.14
73558;BME280;61829;53.286;10.434;2023-09-08T12:08:10;101619.75;;;33.60;29.94
73558;BME280;61829;53.286;10.434;2023-09-08T12:10:41;101616.72;;;33.79;30.52
73558;BME280;61829;53.286;10.434;2023-09-08T12:13:08;101617.44;;;34.02;30.92
73558;BME280;61829;53.286;10.434;2023-09-08T12:15:37;101618.28;;;34.02;29.59
73558;BME280;61829;53.286;10.434;2023-09-08T12:18:05;101615.97;;;33.95;29.52
73558;BME280;61829;53.286;10.434;2023-09-08T12:20:32;101620.00;;;34.12;29.73
73558;BME280;61829;53.286;10.434;2023-09-08T12:23:06;101617.66;;;34.05;29.17
73558;BME280;61829;53.286;10.434;2023-09-08T12:25:51;101613.88;;;34.10;28.56
73558;BME280;61829;53.286;10.434;2023-09-08T12:28:20;101617.28;;;33.98;28.93
73558;BME280;61829;53.286;10.434;2023-09-08T12:30:51;101614.59;;;33.75;28.41
73558;BME280;61829;53.286;10.434;2023-09-08T12:33:19;101618.97;;;33.68;29.18
73558;BME280;61829;53.286;10.434;2023-09-08T12:35:46;101615.34;;;33.59;29.49
73558;BME280;61829;53.286;10.434;2023-09-08T12:38:14;101614.00;;;33.56;29.69
73558;BME280;61829;53.286;10.434;2023-09-08T12:40:40;101606.44;;;33.57;31.32
73558;BME280;61829;53.286;10.434;2023-09-08T12:43:06;101598.69;;;33.53;30.26
73558;BME280;61829;53.286;10.434;2023-09-08T12:45:32;101601.19;;;33.55;30.21
73558;BME280;61829;53.286;10.434;2023-09-08T12:48:00;101603.50;;;33.62;30.59
73558;BME280;61829;53.286;10.434;2023-09-08T12:50:28;101601.09;;;33.69;30.30